createdAt,value
2023-03-02T00:00:47.923Z,29.73
2023-03-02T00:03:18.284Z,28.50
2023-03-02T00:05:49.103Z,28.42
2023-03-02T00:08:18.093Z,37.75
2023-03-02T00:10:44.974Z,33.30
2023-03-02T00:13:13.918Z,39.20
2023-03-02T00:15:41.423Z,37.72
2023-03-02T00:18:08.079Z,36.33
2023-03-02T00:20:36.001Z,32.58
2023-03-02T00:23:02.648Z,32.53
2023-03-02T00:25:29.408Z,32.28
2023-03-02T00:27:56.272Z,33.28
2023-03-02T00:30:22.882Z,38.67
2023-03-02T00:32:49.660Z,35.53
2023-03-02T00:35:16.460Z,40.35
2023-03-02T00:37:43.400Z,32.88
2023-03-02T00:40:11.284Z,36.60
2023-03-02T00:42:38.198Z,29.05
2023-03-02T00:45:06.147Z,38.40
2023-03-02T00:47:36.813Z,38.30
2023-03-02T00:50:05.373Z,33.53
2023-03-02T00:52:33.320Z,33.85
2023-03-02T00:54:59.937Z,31.80
2023-03-02T00:57:26.586Z,33.80
2023-03-02T00:59:53.229Z,33.33
2023-03-02T01:02:21.743Z,41.00
2023-03-02T01:04:49.371Z,38.65
2023-03-02T01:07:18.554Z,32.63
2023-03-02T01:09:45.542Z,38.72
2023-03-02T01:12:12.881Z,30.63
2023-03-02T01:14:43.196Z,36.78
2023-03-02T01:17:10.550Z,38.10
2023-03-02T01:19:37.943Z,34.03
2023-03-02T01:22:04.932Z,37.22
2023-03-02T01:24:32.359Z,36.58
2023-03-02T01:26:58.980Z,33.30
2023-03-02T01:29:26.383Z,32.65
2023-03-02T01:31:53.185Z,30.35
2023-03-02T01:34:19.922Z,33.15
2023-03-02T01:36:46.573Z,34.40
2023-03-02T01:39:16.741Z,34.80
2023-03-02T01:41:44.757Z,35.75
2023-03-02T01:44:36.057Z,36.55
2023-03-02T01:47:05.270Z,33.90
2023-03-02T01:49:37.386Z,38.50
2023-03-02T01:52:04.306Z,35.58
2023-03-02T01:54:31.055Z,28.85
2023-03-02T01:57:02.383Z,37.55
2023-03-02T01:59:31.520Z,32.67
2023-03-02T02:02:01.736Z,33.45
2023-03-02T02:04:30.856Z,32.97
2023-03-02T02:07:02.791Z,33.50
2023-03-02T02:09:38.917Z,30.08
2023-03-02T02:12:06.046Z,32.08
2023-03-02T02:14:33.048Z,29.05
2023-03-02T02:16:59.792Z,36.40
2023-03-02T02:19:50.995Z,38.50
2023-03-02T02:22:30.487Z,32.53
2023-03-02T02:25:02.245Z,31.80
2023-03-02T02:27:33.776Z,37.00
2023-03-02T02:30:04.689Z,29.60
2023-03-02T02:32:36.535Z,32.83
2023-03-02T02:35:07.369Z,39.75
2023-03-02T02:37:39.949Z,39.80
2023-03-02T02:40:12.654Z,33.97
2023-03-02T02:42:44.423Z,39.83
2023-03-02T02:45:26.151Z,35.80
2023-03-02T02:47:53.840Z,36.88
2023-03-02T02:50:28.024Z,31.55
2023-03-02T02:53:18.123Z,31.73
2023-03-02T02:55:48.042Z,30.95
2023-03-02T02:58:40.136Z,28.58
2023-03-02T03:01:07.059Z,35.78
2023-03-02T03:03:39.362Z,29.08
2023-03-02T03:06:13.626Z,36.00
2023-03-02T03:08:46.353Z,29.08
2023-03-02T03:11:15.972Z,29.48
2023-03-02T03:13:44.453Z,31.25
2023-03-02T03:16:14.852Z,29.08
2023-03-02T03:18:47.172Z,31.50
2023-03-02T03:21:13.820Z,34.90
2023-03-02T03:23:40.427Z,36.17
2023-03-02T03:26:07.170Z,34.78
2023-03-02T03:28:33.989Z,31.58
2023-03-02T03:31:00.710Z,35.17
2023-03-02T03:33:27.423Z,27.17
2023-03-02T03:35:54.197Z,35.90
2023-03-02T03:38:20.848Z,31.70
2023-03-02T03:40:47.471Z,32.92
2023-03-02T03:43:15.263Z,31.00
2023-03-02T03:45:41.888Z,36.00
2023-03-02T03:48:08.655Z,31.85
2023-03-02T03:50:35.603Z,31.58
2023-03-02T03:53:03.910Z,31.20
2023-03-02T03:55:31.225Z,29.40
2023-03-02T03:57:57.857Z,33.50
2023-03-02T04:00:24.601Z,32.53
2023-03-02T04:02:51.336Z,35.13
2023-03-02T04:05:18.092Z,39.78
2023-03-02T04:07:44.762Z,34.45
2023-03-02T04:10:12.422Z,36.22
2023-03-02T04:12:41.400Z,33.17
2023-03-02T04:15:10.582Z,36.58
2023-03-02T04:17:37.181Z,37.83
2023-03-02T04:20:07.728Z,33.75
2023-03-02T04:22:34.332Z,26.40
2023-03-02T04:25:01.209Z,34.60
2023-03-02T04:27:27.835Z,35.42
2023-03-02T04:29:54.451Z,36.88
2023-03-02T04:32:21.095Z,36.63
2023-03-02T04:34:47.719Z,33.88
2023-03-02T04:37:16.013Z,32.58
2023-03-02T04:39:43.261Z,35.17
2023-03-02T04:42:09.877Z,35.33
2023-03-02T04:44:36.466Z,43.33
2023-03-02T04:47:03.075Z,38.83
2023-03-02T04:49:29.678Z,36.97
2023-03-02T04:51:56.303Z,38.00
2023-03-02T04:54:26.246Z,38.70
2023-03-02T04:56:53.771Z,40.95
2023-03-02T04:59:26.110Z,44.03
2023-03-02T05:01:58.706Z,40.50
2023-03-02T05:04:26.239Z,39.70
2023-03-02T05:06:52.932Z,40.08
2023-03-02T05:09:20.083Z,39.17
2023-03-02T05:11:47.059Z,40.45
2023-03-02T05:14:13.934Z,46.65
2023-03-02T05:16:42.147Z,43.65
2023-03-02T05:19:11.556Z,42.85
2023-03-02T05:21:38.352Z,33.85
2023-03-02T05:24:05.593Z,31.58
2023-03-02T05:26:32.720Z,34.97
2023-03-02T05:28:59.554Z,37.47
2023-03-02T05:31:36.263Z,38.28
2023-03-02T05:34:04.925Z,43.53
2023-03-02T05:36:32.206Z,38.60
2023-03-02T05:38:59.059Z,37.67
2023-03-02T05:41:26.006Z,34.00
2023-03-02T05:43:53.174Z,42.17
2023-03-02T05:46:22.007Z,41.53
2023-03-02T05:48:49.263Z,29.55
2023-03-02T05:51:15.900Z,39.55
2023-03-02T05:53:42.552Z,35.03
2023-03-02T05:56:09.306Z,40.45
2023-03-02T05:58:36.055Z,33.65
2023-03-02T06:01:02.696Z,38.85
2023-03-02T06:03:29.534Z,41.25
2023-03-02T06:05:56.287Z,40.15
2023-03-02T06:08:23.334Z,49.50
2023-03-02T06:10:50.977Z,43.50
2023-03-02T06:13:18.085Z,40.20
2023-03-02T06:15:44.876Z,45.28
2023-03-02T06:18:12.682Z,43.00
2023-03-02T06:20:40.491Z,41.88
2023-03-02T06:23:07.157Z,32.15
2023-03-02T06:25:35.986Z,35.92
2023-03-02T06:28:02.581Z,34.35
2023-03-02T06:30:29.407Z,34.80
2023-03-02T06:32:56.083Z,30.55
2023-03-02T06:35:24.231Z,39.20
2023-03-02T06:37:51.360Z,40.08
2023-03-02T06:40:18.403Z,33.13
2023-03-02T06:42:45.018Z,40.92
2023-03-02T06:45:12.106Z,34.03
2023-03-02T06:47:39.414Z,49.60
2023-03-02T06:50:06.623Z,42.03
2023-03-02T06:52:33.629Z,45.03
2023-03-02T06:55:00.263Z,44.13
2023-03-02T06:57:33.731Z,46.10
2023-03-02T07:00:02.394Z,49.80
2023-03-02T07:02:29.000Z,44.60
2023-03-02T07:04:55.664Z,51.30
2023-03-02T07:07:22.248Z,46.58
2023-03-02T07:09:48.880Z,44.83
2023-03-02T07:12:15.455Z,48.50
2023-03-02T07:14:42.076Z,46.78
2023-03-02T07:17:09.000Z,46.47
2023-03-02T07:19:35.726Z,43.10
2023-03-02T07:22:02.321Z,55.45
2023-03-02T07:24:28.971Z,52.42
2023-03-02T07:26:55.556Z,53.47
2023-03-02T07:29:22.180Z,51.55
2023-03-02T07:31:48.778Z,51.83
2023-03-02T07:34:16.385Z,48.75
2023-03-02T07:36:42.999Z,47.45
2023-03-02T07:39:09.595Z,50.88
2023-03-02T07:41:36.399Z,55.65
2023-03-02T07:44:03.112Z,50.42
2023-03-02T07:46:29.815Z,56.63
2023-03-02T07:48:56.537Z,53.95
2023-03-02T07:51:23.184Z,63.33
2023-03-02T07:53:49.777Z,47.70
2023-03-02T07:56:16.562Z,58.78
2023-03-02T07:58:43.342Z,50.78
2023-03-02T08:01:10.137Z,55.53
2023-03-02T08:03:37.378Z,44.47
2023-03-02T08:06:09.209Z,48.97
2023-03-02T08:08:36.822Z,50.17
2023-03-02T08:11:12.858Z,53.70
2023-03-02T08:13:40.069Z,51.60
2023-03-02T08:16:08.627Z,47.38
2023-03-02T08:18:37.418Z,40.92
2023-03-02T08:21:05.168Z,48.83
2023-03-02T08:23:31.811Z,46.83
2023-03-02T08:25:58.460Z,47.28
2023-03-02T08:28:25.112Z,50.03
2023-03-02T08:30:58.756Z,45.05
2023-03-02T08:33:27.139Z,48.33
2023-03-02T08:35:58.651Z,48.20
2023-03-02T08:38:26.128Z,47.60
2023-03-02T08:40:53.222Z,46.50
2023-03-02T08:43:20.865Z,47.63
2023-03-02T08:45:52.301Z,49.25
2023-03-02T08:48:20.468Z,48.83
2023-03-02T08:51:04.239Z,49.33
2023-03-02T08:53:34.334Z,49.20
2023-03-02T08:56:01.077Z,43.88
2023-03-02T08:58:28.292Z,40.75
2023-03-02T09:00:55.006Z,47.35
2023-03-02T09:03:21.810Z,48.08
2023-03-02T09:05:48.561Z,43.50
2023-03-02T09:08:15.204Z,40.60
2023-03-02T09:10:41.819Z,45.10
2023-03-02T09:13:08.778Z,42.88
2023-03-02T09:15:35.758Z,39.97
2023-03-02T09:18:02.444Z,43.38
2023-03-02T09:20:29.061Z,45.40
2023-03-02T09:22:55.731Z,43.97
2023-03-02T09:25:22.431Z,39.58
2023-03-02T09:27:49.079Z,43.08
2023-03-02T09:30:16.144Z,43.85
2023-03-02T09:32:42.994Z,42.08
2023-03-02T09:35:09.967Z,38.38
2023-03-02T09:37:38.904Z,42.92
2023-03-02T09:40:15.886Z,37.63
2023-03-02T09:42:51.142Z,38.55
2023-03-02T09:45:23.831Z,39.03
2023-03-02T09:48:03.860Z,37.72
2023-03-02T09:50:37.088Z,38.65
2023-03-02T09:55:54.215Z,35.65
2023-03-02T09:58:25.613Z,34.63
2023-03-02T10:00:52.543Z,30.42
2023-03-02T10:03:22.626Z,26.90
2023-03-02T10:05:51.911Z,27.73
2023-03-02T10:08:21.978Z,29.08
2023-03-02T10:11:22.381Z,31.60
2023-03-02T10:14:07.008Z,29.92
2023-03-02T10:16:47.144Z,32.85
2023-03-02T10:19:21.376Z,28.83
2023-03-02T10:21:57.374Z,31.92
2023-03-02T10:24:35.847Z,29.10
2023-03-02T10:27:12.381Z,31.90
2023-03-02T10:29:39.009Z,34.55
2023-03-02T10:32:30.150Z,33.00
2023-03-02T10:34:58.633Z,33.53
2023-03-02T10:37:29.705Z,31.85
2023-03-02T10:39:56.914Z,29.45
2023-03-02T10:42:37.701Z,30.05
2023-03-02T10:45:13.551Z,28.98
2023-03-02T10:47:40.149Z,26.48
2023-03-02T10:50:21.670Z,30.55
2023-03-02T10:52:59.946Z,30.23
2023-03-02T10:55:27.999Z,24.42
2023-03-02T10:58:29.592Z,23.55
2023-03-02T11:01:07.322Z,28.63
2023-03-02T11:03:34.283Z,26.45
2023-03-02T11:06:22.619Z,30.13
2023-03-02T11:09:06.618Z,31.55
2023-03-02T11:11:34.207Z,31.45
2023-03-02T11:14:17.035Z,27.08
2023-03-02T11:16:44.069Z,28.70
2023-03-02T11:19:40.152Z,28.15
2023-03-02T11:22:12.184Z,28.35
2023-03-02T11:24:50.273Z,25.83
2023-03-02T11:27:26.945Z,29.02
2023-03-02T11:30:02.928Z,29.55
2023-03-02T11:32:36.576Z,30.88
2023-03-02T11:35:05.486Z,26.73
2023-03-02T11:37:52.962Z,23.65
2023-03-02T11:40:23.789Z,27.20
2023-03-02T11:42:51.214Z,28.27
2023-03-02T11:45:22.716Z,27.10
2023-03-02T11:48:06.317Z,29.05
2023-03-02T11:50:37.467Z,28.85
2023-03-02T11:53:07.826Z,30.38
2023-03-02T11:55:45.558Z,29.35
2023-03-02T11:58:18.395Z,27.30
2023-03-02T12:00:46.964Z,24.83
2023-03-02T12:03:16.658Z,28.13
2023-03-02T12:05:46.306Z,26.08
2023-03-02T12:08:19.094Z,26.15
2023-03-02T12:11:06.406Z,22.60
2023-03-02T12:13:39.122Z,28.58
2023-03-02T12:16:37.103Z,24.33
2023-03-02T12:19:26.785Z,24.23
2023-03-02T12:22:00.707Z,23.35
2023-03-02T12:24:35.980Z,24.13
2023-03-02T12:27:04.552Z,21.17
2023-03-02T12:29:45.760Z,23.80
2023-03-02T12:32:31.193Z,23.52
2023-03-02T12:35:00.711Z,22.30
2023-03-02T12:37:40.437Z,20.42
2023-03-02T12:40:31.288Z,22.17
2023-03-02T12:43:36.007Z,21.55
2023-03-02T12:46:20.962Z,22.60
2023-03-02T12:48:59.624Z,21.08
2023-03-02T12:51:29.448Z,22.60
2023-03-02T12:54:07.123Z,19.50
2023-03-02T12:56:34.458Z,17.88
2023-03-02T12:59:01.267Z,21.85
2023-03-02T13:01:30.665Z,20.17
2023-03-02T13:03:58.420Z,21.08
2023-03-02T13:06:30.079Z,18.92
2023-03-02T13:08:59.509Z,22.30
2023-03-02T13:11:32.182Z,22.60
2023-03-02T13:14:00.196Z,20.00
2023-03-02T13:16:29.880Z,23.38
2023-03-02T13:18:59.925Z,20.77
2023-03-02T13:21:38.267Z,18.35
2023-03-02T13:24:32.563Z,23.23
2023-03-02T13:27:20.605Z,17.65
2023-03-02T13:29:48.232Z,19.67
2023-03-02T13:32:43.336Z,17.55
2023-03-02T13:35:26.803Z,19.50
2023-03-02T13:38:04.801Z,21.40
2023-03-02T13:40:31.495Z,17.92
2023-03-02T13:42:58.527Z,19.40
2023-03-02T13:45:31.111Z,16.23
2023-03-02T13:48:13.814Z,17.73
2023-03-02T13:50:40.440Z,16.10
2023-03-02T13:53:07.263Z,17.55
2023-03-02T13:55:35.287Z,18.73
2023-03-02T13:58:02.548Z,17.60
2023-03-02T14:00:33.942Z,20.30
2023-03-02T14:03:01.333Z,20.23
2023-03-02T14:05:33.403Z,17.73
2023-03-02T14:08:00.805Z,18.73
2023-03-02T14:10:27.657Z,21.25
2023-03-02T14:12:59.730Z,16.90
2023-03-02T14:15:26.637Z,18.00
2023-03-02T14:17:53.322Z,18.48
2023-03-02T14:20:20.745Z,18.90
2023-03-02T14:22:48.665Z,18.05
2023-03-02T14:25:15.486Z,15.40
2023-03-02T14:27:43.158Z,20.50
2023-03-02T14:30:20.783Z,18.85
2023-03-02T14:32:47.962Z,18.80
2023-03-02T14:35:16.650Z,17.48
2023-03-02T14:37:47.060Z,18.55
2023-03-02T14:40:21.583Z,23.05
2023-03-02T14:42:48.660Z,18.00
2023-03-02T14:45:16.525Z,24.90
2023-03-02T14:47:43.167Z,20.45
2023-03-02T14:50:11.783Z,20.20
2023-03-02T14:52:48.235Z,19.77
2023-03-02T14:55:25.838Z,19.42
2023-03-02T14:57:57.295Z,26.17
2023-03-02T15:00:24.977Z,20.90
2023-03-02T15:02:51.987Z,21.80
2023-03-02T15:05:18.987Z,20.50
2023-03-02T15:07:45.876Z,18.92
2023-03-02T15:10:18.410Z,18.17
2023-03-02T15:12:45.398Z,19.15
2023-03-02T15:15:12.871Z,21.23
2023-03-02T15:17:40.841Z,22.02
2023-03-02T15:20:08.624Z,19.95
2023-03-02T15:22:35.248Z,19.13
2023-03-02T15:25:01.936Z,21.23
2023-03-02T15:27:28.547Z,23.63
2023-03-02T15:29:56.869Z,20.88
2023-03-02T15:32:23.704Z,17.83
2023-03-02T15:34:50.312Z,19.55
2023-03-02T15:37:17.162Z,20.38
2023-03-02T15:39:44.618Z,21.75
2023-03-02T15:42:13.494Z,23.75
2023-03-02T15:44:40.607Z,25.63
2023-03-02T15:47:07.320Z,19.50
2023-03-02T15:49:33.985Z,20.35
2023-03-02T15:52:00.655Z,24.83
2023-03-02T15:54:28.771Z,20.88
2023-03-02T15:56:55.704Z,21.15
2023-03-02T15:59:25.493Z,24.52
2023-03-02T16:01:53.007Z,24.45
2023-03-02T16:04:19.890Z,25.55
2023-03-02T16:06:46.578Z,23.80
2023-03-02T16:09:13.176Z,21.88
2023-03-02T16:11:39.787Z,25.48
2023-03-02T16:14:06.443Z,24.80
2023-03-02T16:16:33.286Z,23.08
2023-03-02T16:19:00.117Z,21.30
2023-03-02T16:21:28.680Z,25.52
2023-03-02T16:24:03.142Z,21.35
2023-03-02T16:26:31.859Z,24.23
2023-03-02T16:28:59.672Z,28.58
2023-03-02T16:31:28.126Z,25.25
2023-03-02T16:33:57.534Z,25.27
2023-03-02T16:36:24.159Z,26.15
2023-03-02T16:38:50.844Z,23.38
2023-03-02T16:41:20.428Z,25.70
2023-03-02T16:43:53.197Z,25.25
2023-03-02T16:46:21.618Z,23.48
2023-03-02T16:48:49.157Z,25.77
2023-03-02T16:51:18.169Z,27.88
2023-03-02T16:53:45.245Z,24.42
2023-03-02T16:56:13.021Z,30.38
2023-03-02T16:58:41.416Z,25.45
2023-03-02T17:01:10.477Z,31.58
2023-03-02T17:03:37.175Z,26.65
2023-03-02T17:06:06.566Z,31.50
2023-03-02T17:08:33.647Z,27.33
2023-03-02T17:11:00.435Z,29.02
2023-03-02T17:13:27.203Z,26.30
2023-03-02T17:15:54.488Z,33.85
2023-03-02T17:18:21.144Z,29.88
2023-03-02T17:20:52.138Z,33.53
2023-03-02T17:23:18.855Z,30.27
2023-03-02T17:25:45.504Z,29.63
2023-03-02T17:28:14.894Z,29.73
2023-03-02T17:30:42.303Z,31.25
2023-03-02T17:33:09.638Z,29.80
2023-03-02T17:35:36.648Z,31.55
2023-03-02T17:38:03.301Z,28.15
2023-03-02T17:40:30.133Z,27.63
2023-03-02T17:42:57.827Z,31.77
2023-03-02T17:45:27.327Z,31.52
2023-03-02T17:47:56.435Z,33.97
2023-03-02T17:50:23.593Z,32.40
2023-03-02T17:52:51.402Z,35.25
2023-03-02T17:55:18.211Z,29.08
2023-03-02T17:57:44.887Z,29.42
2023-03-02T18:00:16.187Z,29.15
2023-03-02T18:02:42.953Z,28.58
2023-03-02T18:05:10.219Z,31.08
2023-03-02T18:07:37.420Z,34.17
2023-03-02T18:10:05.487Z,35.38
2023-03-02T18:12:32.254Z,31.58
2023-03-02T18:14:58.877Z,32.55
2023-03-02T18:17:25.616Z,30.60
2023-03-02T18:19:52.357Z,31.88
2023-03-02T18:22:19.515Z,33.67
2023-03-02T18:24:47.537Z,35.30
2023-03-02T18:27:14.226Z,26.15
2023-03-02T18:29:40.874Z,30.95
2023-03-02T18:32:07.607Z,28.38
2023-03-02T18:34:34.236Z,32.92
2023-03-02T18:37:00.854Z,30.50
2023-03-02T18:39:27.465Z,31.60
2023-03-02T18:41:54.099Z,30.02
2023-03-02T18:44:20.812Z,34.50
2023-03-02T18:46:47.478Z,34.58
2023-03-02T18:49:14.084Z,28.95
2023-03-02T18:51:40.747Z,28.38
2023-03-02T18:54:07.666Z,30.17
2023-03-02T18:56:34.336Z,24.95
2023-03-02T18:59:01.047Z,26.55
2023-03-02T19:01:30.905Z,29.33
2023-03-02T19:03:58.799Z,32.05
2023-03-02T19:06:25.412Z,36.00
2023-03-02T19:08:52.059Z,27.88
2023-03-02T19:11:18.708Z,27.02
2023-03-02T19:13:45.383Z,26.48
2023-03-02T19:16:12.414Z,26.85
2023-03-02T19:18:39.392Z,30.77
2023-03-02T19:21:06.562Z,40.55
2023-03-02T19:23:33.298Z,27.38
2023-03-02T19:26:00.263Z,32.45
2023-03-02T19:28:27.588Z,29.02
2023-03-02T19:30:54.271Z,32.70
2023-03-02T19:33:21.020Z,28.90
2023-03-02T19:35:47.632Z,27.73
2023-03-02T19:38:14.267Z,25.27
2023-03-02T19:40:40.945Z,28.83
2023-03-02T19:43:08.002Z,29.75
2023-03-02T19:45:35.805Z,27.58
2023-03-02T19:48:03.828Z,31.23
2023-03-02T19:50:30.617Z,28.50
2023-03-02T19:52:58.323Z,27.85
2023-03-02T19:55:25.554Z,26.25
2023-03-02T19:57:59.609Z,29.02
2023-03-02T20:00:28.766Z,28.05
2023-03-02T20:02:56.024Z,27.17
2023-03-02T20:05:22.702Z,29.92
2023-03-02T20:07:49.454Z,31.65
2023-03-02T20:10:30.230Z,30.58
2023-03-02T20:12:57.252Z,29.73
2023-03-02T20:15:23.884Z,31.13
2023-03-02T20:17:50.583Z,29.75
2023-03-02T20:20:17.205Z,33.70
2023-03-02T20:22:45.502Z,40.63
2023-03-02T20:25:14.481Z,52.58
2023-03-02T20:27:41.850Z,58.85
2023-03-02T20:30:11.168Z,44.72
2023-03-02T20:32:37.838Z,41.25
2023-03-02T20:35:04.953Z,32.22
2023-03-02T20:37:31.862Z,29.80
2023-03-02T20:39:59.062Z,33.47
2023-03-02T20:42:25.729Z,30.75
2023-03-02T20:44:52.537Z,30.10
2023-03-02T20:47:19.580Z,32.80
2023-03-02T20:49:46.277Z,29.98
2023-03-02T20:52:12.982Z,32.47
2023-03-02T20:54:42.142Z,29.73
2023-03-02T20:57:09.272Z,26.05
2023-03-02T20:59:39.286Z,26.38
2023-03-02T21:02:06.170Z,25.30
2023-03-02T21:04:34.576Z,30.50
2023-03-02T21:07:01.719Z,27.75
2023-03-02T21:09:28.442Z,31.08
2023-03-02T21:11:57.107Z,27.40
2023-03-02T21:14:23.945Z,31.58
2023-03-02T21:16:50.616Z,32.20
2023-03-02T21:19:18.863Z,29.77
2023-03-02T21:21:46.350Z,31.70
2023-03-02T21:24:19.116Z,28.85
2023-03-02T21:26:47.852Z,26.33
2023-03-02T21:29:14.989Z,29.55
2023-03-02T21:31:43.895Z,27.90
2023-03-02T21:34:12.785Z,32.53
2023-03-02T21:36:39.504Z,35.03
2023-03-02T21:39:07.006Z,31.15
2023-03-02T21:41:38.032Z,27.30
2023-03-02T21:44:05.921Z,28.02
2023-03-02T21:46:34.937Z,28.00
2023-03-02T21:49:01.612Z,31.20
2023-03-02T21:51:28.380Z,29.88
2023-03-02T21:53:55.039Z,29.02
2023-03-02T21:56:24.650Z,33.50
2023-03-02T21:58:53.107Z,30.10
2023-03-02T22:01:20.929Z,31.25
2023-03-02T22:03:48.265Z,30.30
2023-03-02T22:06:20.441Z,27.88
2023-03-02T22:08:47.147Z,26.33
2023-03-02T22:11:39.621Z,30.15
2023-03-02T22:14:14.865Z,32.40
2023-03-02T22:16:45.164Z,31.90
2023-03-02T22:19:17.767Z,32.85
2023-03-02T22:21:47.923Z,28.88
2023-03-02T22:24:21.490Z,26.63
2023-03-02T22:26:55.587Z,28.90
2023-03-02T22:29:25.594Z,30.13
2023-03-02T22:31:55.162Z,36.00
2023-03-02T22:34:30.814Z,31.88
2023-03-02T22:37:03.227Z,33.40
2023-03-02T22:39:33.696Z,34.00
2023-03-02T22:42:21.395Z,29.25
2023-03-02T22:45:01.727Z,31.75
2023-03-02T22:47:28.459Z,26.77
2023-03-02T22:50:00.344Z,32.90
2023-03-02T22:52:37.167Z,25.42
2023-03-02T22:55:40.296Z,28.10
2023-03-02T22:58:27.719Z,32.78
2023-03-02T23:00:54.860Z,31.10
2023-03-02T23:03:25.115Z,33.63
2023-03-02T23:05:53.125Z,29.92
2023-03-02T23:08:28.655Z,31.58
2023-03-02T23:10:58.019Z,30.08
2023-03-02T23:13:31.050Z,33.13
2023-03-02T23:15:57.853Z,35.38
2023-03-02T23:18:29.884Z,28.63
2023-03-02T23:20:56.687Z,30.15
2023-03-02T23:23:26.634Z,30.23
2023-03-02T23:25:53.284Z,28.27
2023-03-02T23:28:19.868Z,33.47
2023-03-02T23:30:47.655Z,28.52
2023-03-02T23:33:14.236Z,29.75
2023-03-02T23:35:41.979Z,31.92
2023-03-02T23:38:08.732Z,30.98
2023-03-02T23:40:35.413Z,27.45
2023-03-02T23:43:02.346Z,30.90
2023-03-02T23:45:29.008Z,36.25
2023-03-02T23:47:55.622Z,29.88
2023-03-02T23:50:22.362Z,34.45
2023-03-02T23:52:49.325Z,31.10
2023-03-02T23:55:16.476Z,30.58
2023-03-02T23:57:43.092Z,28.48
